Aeroporto :
LOGIN :

Iscrizione | Disclaimer

   EN    FR    IT 

 










Sommario :    VFR   VFR Marginale   IFR   IFR Intensivo   IFR Molto Intensivo
Visibilità : 
Base nubi : 
>= 8 km
>= 3000ft
5 / 8 km
1000 / 3000 ft
1500m / 5 km
500 / 1000 ft
800 / 1500m
200 / 500 ft
< 800m
< 200 ft
Simboli :   Temporali  Nebbia  Neve Forte  Precipitazioni Forti  Vento > 20 kt
SIGMETs :   Varie  Temporali  Ghiacco  Turbolenza  Onda orograficha  Ceneri Vulcaniche






- Altitudine del aeroporto : 1363 ft


ETIC - Grafenwohr Army Air Field

ULTIMO METAR :
  • 062356Z AUTO 00000KT 9999 CLR 03/02 A3031 RMK AO2 SLP268 T00260017 10157 20026 52015 $

METARs OBSOLETI :
  • 062256Z AUTO 00000KT 9999 CLR 04/02 A3029 RMK AO2 SLP262 T00370021 402051015 $
  • 062156Z AUTO 00000KT 9999 CLR 05/02 A3028 RMK AO2 SLP260 T00510016 $

TAF AMD TAF ETIC
Valido dal 06 a 20 ore il 07 a 12 ore UTC


062004Z 0620/0712 VRB06KT 9999 SKC QNH3018INS
BECMG 0705/0706 VRB03KT 8000 BR SKC QNH3025INS TX18/0712Z TNM01/0704Z



MetMap, La meteo Aeronautica in un colpo d'occhio ! - Copyright ORBIFLY Dicembre 2007 - Disclaimer

ORBIFLY MET'MAP TEAM :

Programmazione e sviluppo : Alexandra Zaïnal
Concezione : Baudouin d'Aumeries
Aiuto per la programmazione : Marc-Olivier Méhu
Supporto tecnico e logistico : Manuel Goepfert
Aiuto per la traduzione : Arnaldo La Scala

Contatto : metmap@orbifly.com




FONTI E CREDITI :

   NOAA